Sunday, June 17, 2018, 9:59 PM EDT
Back to Local

KORH, Worcester Regional Airport

Location: Worcester, MA, United States Lat: 42.267
Local Time: 9:59 PM EDT ( 1:59 GMT) Lon: -71.867
Time Zone: US/Eastern Elev: 1010 ft

Show me the last for .
Show Coded

Time T Td Feel RH Dir Speed Gust Alt SLP Vis Weather Sky Remarks
2018-06-17 20:54 71 56 76 58 210° 7 - 30.07 30.06 10 CLR None
2018-06-17 19:54 78 53 79 41 230° 3 - 30.08 30.06 10 CLR 6-hr Min Temp (8pm): 78.1°F
6-hr Max Temp (8pm): 84.9°F
2018-06-17 18:54 82 51 - 34 260° 5 - 30.08 30.07 10 CLR None
2018-06-17 17:54 84 52 - 33 280° 6 - 30.08 30.07 10 CLR None
2018-06-17 16:54 84 53 - 34 Variable 3 - 30.09 30.07 10 CLR None
2018-06-17 15:54 83 53 - 35 320° 6 - 30.09 30.07 10 CLR None
2018-06-17 14:54 83 53 - 35 200° 5 - 30.09 30.07 10 CLR None
2018-06-17 13:54 81 53 - 38 Variable 6 - 30.08 30.06 10 CLR 6-hr Min Temp (2pm): 72.0°F
6-hr Max Temp (2pm): 82.9°F
2018-06-17 12:54 81 55 81 41 Variable 6 - 30.10 30.08 10 CLR None
2018-06-17 11:54 79 54 79 42 180° 6 - 30.11 30.10 10 CLR None
2018-06-17 10:54 78 53 79 41 Variable 3 - 30.13 30.12 10 CLR None
2018-06-17 09:54 78 51 - 38 10° 3 - 30.12 30.10 10 CLR None
2018-06-17 08:54 76 49 - 38 10° 3 - 30.10 30.09 10 CLR None
2018-06-17 07:54 72 55 76 55 - Calm - 30.09 30.07 10 CLR 6-hr Min Temp (8am): 59.0°F
6-hr Max Temp (8am): 72.0°F
2018-06-17 06:54 66 54 - 65 300° 6 - 30.08 30.06 10 CLR None
2018-06-17 05:54 61 51 - 69 270° 6 - 30.06 30.05 10 CLR None
2018-06-17 04:54 61 51 - 69 260° 3 - 30.05 30.04 10 CLR None
2018-06-17 03:54 62 51 - 67 270° 8 - 30.05 30.03 10 CLR None
2018-06-17 02:54 62 51 - 67 270° 6 - 30.04 30.03 10 CLR None
2018-06-17 01:54 65 51 - 60 260° 9 - 30.04 30.02 10 CLR 6-hr Min Temp (2am): 61.0°F
6-hr Max Temp (2am): 73.0°F
2018-06-17 00:54 62 50 - 64 290° 7 - 30.03 30.02 10 CLR 24-hr Min Temp (1am): 55.0°F
24-hr Max Temp (1am): 80.1°F
2018-06-16 23:54 64 50 - 60 290° 9 - 30.05 30.03 10 CLR None
2018-06-16 22:54 63 50 - 62 280° 7 - 30.05 30.03 10 CLR None

Support USWX by starting your Amazon purchase here.